sensor_id;sensor_type;location;lat;lon;timestamp;pressure;altitude;pressure_sealevel;temperature;humidity
13690;BME280;6917;52.194;9.894;2023-05-22T00:01:09;100383.44;;;16.56;87.14
13690;BME280;6917;52.194;9.894;2023-05-22T00:03:34;100376.13;;;16.48;86.72
13690;BME280;6917;52.194;9.894;2023-05-22T00:06:01;100373.09;;;16.37;86.85
13690;BME280;6917;52.194;9.894;2023-05-22T00:08:27;100368.16;;;16.30;87.04
13690;BME280;6917;52.194;9.894;2023-05-22T00:10:53;100374.88;;;16.17;87.56
13690;BME280;6917;52.194;9.894;2023-05-22T00:13:18;100378.25;;;16.11;88.34
13690;BME280;6917;52.194;9.894;2023-05-22T00:15:43;100377.44;;;16.10;89.05
13690;BME280;6917;52.194;9.894;2023-05-22T00:18:09;100377.69;;;16.05;89.23
13690;BME280;6917;52.194;9.894;2023-05-22T00:20:34;100375.88;;;15.97;89.86
13690;BME280;6917;52.194;9.894;2023-05-22T00:23:03;100367.06;;;15.91;89.72
13690;BME280;6917;52.194;9.894;2023-05-22T00:25:28;100370.28;;;15.93;90.04
13690;BME280;6917;52.194;9.894;2023-05-22T00:27:54;100376.22;;;15.95;89.96
13690;BME280;6917;52.194;9.894;2023-05-22T00:30:19;100367.53;;;15.93;90.34
13690;BME280;6917;52.194;9.894;2023-05-22T00:32:45;100371.44;;;15.92;90.64
13690;BME280;6917;52.194;9.894;2023-05-22T00:35:10;100367.88;;;15.92;90.53
13690;BME280;6917;52.194;9.894;2023-05-22T00:37:36;100369.56;;;15.96;90.44
13690;BME280;6917;52.194;9.894;2023-05-22T00:40:02;100370.13;;;16.02;90.45
13690;BME280;6917;52.194;9.894;2023-05-22T00:42:28;100363.31;;;16.12;90.39
13690;BME280;6917;52.194;9.894;2023-05-22T00:44:53;100368.56;;;16.17;89.71
13690;BME280;6917;52.194;9.894;2023-05-22T00:47:18;100358.69;;;16.16;89.36
13690;BME280;6917;52.194;9.894;2023-05-22T00:49:44;100365.03;;;16.04;89.90
13690;BME280;6917;52.194;9.894;2023-05-22T00:52:11;100362.59;;;16.15;89.89
13690;BME280;6917;52.194;9.894;2023-05-22T00:54:37;100363.75;;;16.14;90.29
13690;BME280;6917;52.194;9.894;2023-05-22T00:57:03;100364.69;;;16.05;89.99
13690;BME280;6917;52.194;9.894;2023-05-22T00:59:30;100370.47;;;16.00;90.65
13690;BME280;6917;52.194;9.894;2023-05-22T01:01:55;100370.47;;;16.00;91.26
13690;BME280;6917;52.194;9.894;2023-05-22T01:04:22;100370.03;;;15.86;91.67
13690;BME280;6917;52.194;9.894;2023-05-22T01:06:47;100369.25;;;15.86;92.48
13690;BME280;6917;52.194;9.894;2023-05-22T01:09:13;100370.03;;;15.98;92.32
13690;BME280;6917;52.194;9.894;2023-05-22T01:12:04;100367.53;;;15.93;91.79
13690;BME280;6917;52.194;9.894;2023-05-22T01:25:58;100356.09;;;16.07;91.04
13690;BME280;6917;52.194;9.894;2023-05-22T01:31:29;100347.88;;;15.95;92.40
13690;BME280;6917;52.194;9.894;2023-05-22T01:33:57;100345.81;;;15.92;92.24
13690;BME280;6917;52.194;9.894;2023-05-22T01:36:28;100342.84;;;15.85;92.73
13690;BME280;6917;52.194;9.894;2023-05-22T01:38:55;100344.00;;;15.84;93.15
13690;BME280;6917;52.194;9.894;2023-05-22T01:41:21;100343.75;;;15.89;93.48
13690;BME280;6917;52.194;9.894;2023-05-22T01:43:46;100340.41;;;15.95;92.79
13690;BME280;6917;52.194;9.894;2023-05-22T01:46:12;100342.81;;;15.97;93.02
13690;BME280;6917;52.194;9.894;2023-05-22T01:48:37;100346.38;;;15.97;93.10
13690;BME280;6917;52.194;9.894;2023-05-22T01:54:19;100340.63;;;15.90;93.85
13690;BME280;6917;52.194;9.894;2023-05-22T01:56:52;100343.19;;;15.83;94.08
13690;BME280;6917;52.194;9.894;2023-05-22T01:59:33;100340.81;;;15.69;94.62
13690;BME280;6917;52.194;9.894;2023-05-22T02:02:04;100329.13;;;15.60;95.32
13690;BME280;6917;52.194;9.894;2023-05-22T02:04:31;100325.56;;;15.60;95.45
13690;BME280;6917;52.194;9.894;2023-05-22T02:07:01;100330.41;;;15.63;96.26
13690;BME280;6917;52.194;9.894;2023-05-22T02:09:28;100328.81;;;15.50;96.60
13690;BME280;6917;52.194;9.894;2023-05-22T02:11:56;100323.22;;;15.34;97.93
13690;BME280;6917;52.194;9.894;2023-05-22T02:14:22;100320.22;;;15.27;98.77
13690;BME280;6917;52.194;9.894;2023-05-22T02:16:48;100327.13;;;15.21;99.87
13690;BME280;6917;52.194;9.894;2023-05-22T02:19:14;100324.38;;;15.21;100.00
13690;BME280;6917;52.194;9.894;2023-05-22T02:21:40;100319.22;;;15.19;100.00
13690;BME280;6917;52.194;9.894;2023-05-22T02:24:05;100324.72;;;15.19;100.00
13690;BME280;6917;52.194;9.894;2023-05-22T02:26:30;100308.88;;;15.16;100.00
13690;BME280;6917;52.194;9.894;2023-05-22T02:29:16;100310.03;;;15.03;100.00
13690;BME280;6917;52.194;9.894;2023-05-22T02:31:41;100303.25;;;15.00;100.00
13690;BME280;6917;52.194;9.894;2023-05-22T02:34:06;100301.44;;;14.92;100.00
13690;BME280;6917;52.194;9.894;2023-05-22T02:36:31;100297.66;;;14.84;100.00
13690;BME280;6917;52.194;9.894;2023-05-22T02:39:00;100295.81;;;14.88;100.00
13690;BME280;6917;52.194;9.894;2023-05-22T02:41:45;100303.41;;;14.92;100.00
13690;BME280;6917;52.194;9.894;2023-05-22T02:44:10;100296.97;;;14.87;100.00
13690;BME280;6917;52.194;9.894;2023-05-22T02:46:36;100285.41;;;14.82;100.00
13690;BME280;6917;52.194;9.894;2023-05-22T02:49:21;100296.16;;;14.87;100.00
13690;BME280;6917;52.194;9.894;2023-05-22T02:51:46;100294.69;;;14.77;100.00
13690;BME280;6917;52.194;9.894;2023-05-22T02:54:13;100292.28;;;14.76;100.00
13690;BME280;6917;52.194;9.894;2023-05-22T02:56:40;100298.91;;;14.87;100.00
13690;BME280;6917;52.194;9.894;2023-05-22T02:59:05;100298.91;;;14.87;100.00
13690;BME280;6917;52.194;9.894;2023-05-22T03:01:31;100297.66;;;14.97;100.00
13690;BME280;6917;52.194;9.894;2023-05-22T03:03:56;100293.53;;;14.91;100.00
13690;BME280;6917;52.194;9.894;2023-05-22T03:06:21;100292.38;;;14.79;100.00
13690;BME280;6917;52.194;9.894;2023-05-22T03:08:49;100299.59;;;14.72;100.00
13690;BME280;6917;52.194;9.894;2023-05-22T03:11:14;100303.38;;;14.79;100.00
13690;BME280;6917;52.194;9.894;2023-05-22T03:13:40;100298.69;;;14.92;100.00
13690;BME280;6917;52.194;9.894;2023-05-22T03:16:06;100301.56;;;14.96;100.00
13690;BME280;6917;52.194;9.894;2023-05-22T03:18:32;100308.19;;;14.95;100.00
13690;BME280;6917;52.194;9.894;2023-05-22T03:20:57;100303.25;;;15.00;100.00
13690;BME280;6917;52.194;9.894;2023-05-22T03:23:22;100305.00;;;14.93;100.00
13690;BME280;6917;52.194;9.894;2023-05-22T03:25:49;100303.94;;;14.73;100.00
13690;BME280;6917;52.194;9.894;2023-05-22T03:28:15;100305.44;;;14.70;100.00
13690;BME280;6917;52.194;9.894;2023-05-22T03:30:40;100303.94;;;14.73;100.00
13690;BME280;6917;52.194;9.894;2023-05-22T03:33:06;100307.03;;;14.71;100.00
13690;BME280;6917;52.194;9.894;2023-05-22T03:35:31;100307.16;;;14.75;100.00
13690;BME280;6917;52.194;9.894;2023-05-22T03:37:57;100307.59;;;14.89;100.00
13690;BME280;6917;52.194;9.894;2023-05-22T03:40:22;100304.66;;;14.82;100.00
13690;BME280;6917;52.194;9.894;2023-05-22T03:42:47;100300.50;;;15.00;100.00
13690;BME280;6917;52.194;9.894;2023-05-22T03:45:13;100296.84;;;14.96;100.00
13690;BME280;6917;52.194;9.894;2023-05-22T03:47:38;100296.72;;;14.68;100.00
13690;BME280;6917;52.194;9.894;2023-05-22T03:50:04;100299.56;;;14.59;100.00
13690;BME280;6917;52.194;9.894;2023-05-22T03:52:29;100293.84;;;14.52;100.00
13690;BME280;6917;52.194;9.894;2023-05-22T03:54:55;100294.47;;;14.37;100.00
13690;BME280;6917;52.194;9.894;2023-05-22T03:57:20;100292.28;;;14.30;100.00
13690;BME280;6917;52.194;9.894;2023-05-22T03:59:46;100294.47;;;14.37;100.00
13690;BME280;6917;52.194;9.894;2023-05-22T04:02:11;100299.28;;;14.40;100.00
13690;BME280;6917;52.194;9.894;2023-05-22T04:04:40;100304.25;;;14.59;100.00
13690;BME280;6917;52.194;9.894;2023-05-22T04:07:07;100304.19;;;14.80;100.00
13690;BME280;6917;52.194;9.894;2023-05-22T04:09:34;100301.19;;;14.85;100.00
13690;BME280;6917;52.194;9.894;2023-05-22T04:12:01;100311.16;;;14.89;100.00
13690;BME280;6917;52.194;9.894;2023-05-22T04:14:27;100310.59;;;15.08;100.00
13690;BME280;6917;52.194;9.894;2023-05-22T04:16:52;100309.47;;;15.22;100.00
13690;BME280;6917;52.194;9.894;2023-05-22T04:19:19;100317.34;;;15.35;100.00
13690;BME280;6917;52.194;9.894;2023-05-22T04:21:44;100316.66;;;15.38;100.00
13690;BME280;6917;52.194;9.894;2023-05-22T04:24:10;100313.66;;;15.43;100.00
13690;BME280;6917;52.194;9.894;2023-05-22T04:26:35;100309.41;;;15.46;100.00
13690;BME280;6917;52.194;9.894;2023-05-22T04:29:03;100309.88;;;15.48;100.00
13690;BME280;6917;52.194;9.894;2023-05-22T04:31:28;100318.13;;;15.48;100.00
13690;BME280;6917;52.194;9.894;2023-05-22T04:33:54;100312.28;;;15.50;100.00
13690;BME280;6917;52.194;9.894;2023-05-22T04:36:20;100317.09;;;15.53;100.00
13690;BME280;6917;52.194;9.894;2023-05-22T04:38:51;100321.66;;;15.61;100.00
13690;BME280;6917;52.194;9.894;2023-05-22T04:41:16;100322.78;;;15.72;100.00
13690;BME280;6917;52.194;9.894;2023-05-22T04:43:42;100327.25;;;15.76;100.00
13690;BME280;6917;52.194;9.894;2023-05-22T04:46:08;100318.66;;;15.78;100.00
13690;BME280;6917;52.194;9.894;2023-05-22T04:48:33;100323.81;;;15.80;100.00
13690;BME280;6917;52.194;9.894;2023-05-22T04:50:59;100325.97;;;15.86;100.00
13690;BME280;6917;52.194;9.894;2023-05-22T04:53:27;100325.25;;;15.89;100.00
13690;BME280;6917;52.194;9.894;2023-05-22T04:55:53;100326.31;;;15.85;100.00
13690;BME280;6917;52.194;9.894;2023-05-22T04:58:18;100321.69;;;15.89;100.00
13690;BME280;6917;52.194;9.894;2023-05-22T05:00:44;100315.59;;;15.95;100.00
13690;BME280;6917;52.194;9.894;2023-05-22T05:03:09;100316.31;;;15.92;100.00
13690;BME280;6917;52.194;9.894;2023-05-22T05:05:35;100311.31;;;15.70;100.00
13690;BME280;6917;52.194;9.894;2023-05-22T05:08:01;100298.50;;;15.50;100.00
13690;BME280;6917;52.194;9.894;2023-05-22T05:10:26;100296.91;;;15.48;100.00
13690;BME280;6917;52.194;9.894;2023-05-22T05:12:51;100290.47;;;15.44;100.00
13690;BME280;6917;52.194;9.894;2023-05-22T05:15:17;100296.47;;;15.34;100.00
13690;BME280;6917;52.194;9.894;2023-05-22T05:17:43;100302.78;;;15.35;100.00
13690;BME280;6917;52.194;9.894;2023-05-22T05:20:08;100301.50;;;15.32;100.00
13690;BME280;6917;52.194;9.894;2023-05-22T05:22:34;100299.16;;;15.59;100.00
13690;BME280;6917;52.194;9.894;2023-05-22T05:25:01;100300.22;;;15.66;100.00
13690;BME280;6917;52.194;9.894;2023-05-22T05:27:27;100294.47;;;15.47;100.00
13690;BME280;6917;52.194;9.894;2023-05-22T05:29:53;100296.69;;;15.41;100.00
13690;BME280;6917;52.194;9.894;2023-05-22T05:32:18;100297.72;;;15.37;100.00
13690;BME280;6917;52.194;9.894;2023-05-22T05:34:43;100298.63;;;15.41;100.00
13690;BME280;6917;52.194;9.894;2023-05-22T05:37:09;100297.03;;;15.40;100.00
13690;BME280;6917;52.194;9.894;2023-05-22T05:39:34;100296.44;;;15.46;100.00
13690;BME280;6917;52.194;9.894;2023-05-22T05:41:59;100296.41;;;15.59;100.00
13690;BME280;6917;52.194;9.894;2023-05-22T05:44:24;100301.00;;;15.67;100.00
13690;BME280;6917;52.194;9.894;2023-05-22T05:46:50;100297.91;;;15.68;100.00
13690;BME280;6917;52.194;9.894;2023-05-22T05:49:17;100298.00;;;15.72;100.00
13690;BME280;6917;52.194;9.894;2023-05-22T05:51:43;100300.19;;;15.79;100.00
13690;BME280;6917;52.194;9.894;2023-05-22T05:54:08;100298.06;;;15.88;100.00
13690;BME280;6917;52.194;9.894;2023-05-22T05:56:33;100303.78;;;15.95;100.00
13690;BME280;6917;52.194;9.894;2023-05-22T05:58:59;100299.63;;;16.01;100.00
13690;BME280;6917;52.194;9.894;2023-05-22T06:01:25;100303.03;;;16.10;100.00
13690;BME280;6917;52.194;9.894;2023-05-22T06:03:51;100302.75;;;16.15;100.00
13690;BME280;6917;52.194;9.894;2023-05-22T06:06:16;100306.63;;;16.26;100.00
13690;BME280;6917;52.194;9.894;2023-05-22T06:08:42;100302.56;;;16.36;99.86
13690;BME280;6917;52.194;9.894;2023-05-22T06:11:07;100307.16;;;16.48;99.37
13690;BME280;6917;52.194;9.894;2023-05-22T06:13:33;100303.97;;;16.61;98.32
13690;BME280;6917;52.194;9.894;2023-05-22T06:15:58;100296.09;;;16.76;97.24
13690;BME280;6917;52.194;9.894;2023-05-22T06:18:23;100300.44;;;16.77;96.16
13690;BME280;6917;52.194;9.894;2023-05-22T06:20:50;100296.88;;;16.76;95.29
13690;BME280;6917;52.194;9.894;2023-05-22T06:23:15;100307.31;;;16.83;95.22
13690;BME280;6917;52.194;9.894;2023-05-22T06:25:41;100301.16;;;16.89;95.39
13690;BME280;6917;52.194;9.894;2023-05-22T06:28:07;100295.53;;;17.02;95.20
13690;BME280;6917;52.194;9.894;2023-05-22T06:30:32;100297.84;;;17.15;94.79
13690;BME280;6917;52.194;9.894;2023-05-22T06:32:58;100304.41;;;17.27;94.89
13690;BME280;6917;52.194;9.894;2023-05-22T06:35:23;100299.56;;;17.39;94.79
13690;BME280;6917;52.194;9.894;2023-05-22T06:37:49;100297.50;;;17.52;93.64
13690;BME280;6917;52.194;9.894;2023-05-22T06:40:14;100295.72;;;17.63;92.06
13690;BME280;6917;52.194;9.894;2023-05-22T06:42:41;100299.78;;;17.85;91.73
13690;BME280;6917;52.194;9.894;2023-05-22T06:45:07;100304.91;;;18.06;91.35
13690;BME280;6917;52.194;9.894;2023-05-22T06:47:32;100297.88;;;18.08;88.83
13690;BME280;6917;52.194;9.894;2023-05-22T06:49:58;100297.88;;;18.08;87.94
13690;BME280;6917;52.194;9.894;2023-05-22T06:52:23;100298.75;;;18.12;87.11
13690;BME280;6917;52.194;9.894;2023-05-22T06:54:48;100307.31;;;18.27;87.96
13690;BME280;6917;52.194;9.894;2023-05-22T06:57:13;100305.03;;;18.32;86.96
13690;BME280;6917;52.194;9.894;2023-05-22T06:59:39;100299.34;;;18.44;86.41
13690;BME280;6917;52.194;9.894;2023-05-22T07:02:04;100309.06;;;18.58;87.17
13690;BME280;6917;52.194;9.894;2023-05-22T07:04:30;100311.34;;;18.75;86.21
13690;BME280;6917;52.194;9.894;2023-05-22T07:06:55;100304.41;;;18.85;86.09
13690;BME280;6917;52.194;9.894;2023-05-22T07:09:20;100306.31;;;18.81;84.65
13690;BME280;6917;52.194;9.894;2023-05-22T07:11:46;100301.38;;;18.93;84.70
13690;BME280;6917;52.194;9.894;2023-05-22T07:14:11;100309.19;;;18.88;84.57
13690;BME280;6917;52.194;9.894;2023-05-22T07:16:37;100308.66;;;18.79;84.17
13690;BME280;6917;52.194;9.894;2023-05-22T07:19:03;100310.13;;;18.95;85.77
13690;BME280;6917;52.194;9.894;2023-05-22T07:21:28;100304.03;;;18.86;84.86
13690;BME280;6917;52.194;9.894;2023-05-22T07:23:56;100309.09;;;19.07;85.61
13690;BME280;6917;52.194;9.894;2023-05-22T07:26:21;100305.25;;;19.12;83.62
13690;BME280;6917;52.194;9.894;2023-05-22T07:28:47;100292.06;;;19.31;83.69
13690;BME280;6917;52.194;9.894;2023-05-22T07:31:12;100296.66;;;19.50;82.57
13690;BME280;6917;52.194;9.894;2023-05-22T07:33:38;100290.56;;;19.64;81.28
13690;BME280;6917;52.194;9.894;2023-05-22T07:36:03;100292.25;;;19.72;79.67
13690;BME280;6917;52.194;9.894;2023-05-22T07:38:28;100285.78;;;19.61;77.37
13690;BME280;6917;52.194;9.894;2023-05-22T07:40:54;100285.78;;;19.61;78.14
13690;BME280;6917;52.194;9.894;2023-05-22T07:43:20;100292.28;;;19.76;78.82
13690;BME280;6917;52.194;9.894;2023-05-22T07:45:45;100291.63;;;19.86;79.44
13690;BME280;6917;52.194;9.894;2023-05-22T07:48:10;100290.53;;;19.94;79.40
13690;BME280;6917;52.194;9.894;2023-05-22T07:50:36;100283.44;;;19.97;78.66
13690;BME280;6917;52.194;9.894;2023-05-22T07:53:01;100287.25;;;19.85;77.14
13690;BME280;6917;52.194;9.894;2023-05-22T07:55:28;100283.34;;;19.89;78.50
13690;BME280;6917;52.194;9.894;2023-05-22T07:57:53;100287.44;;;19.99;78.50
13690;BME280;6917;52.194;9.894;2023-05-22T08:00:20;100286.50;;;20.25;79.34
13690;BME280;6917;52.194;9.894;2023-05-22T08:02:46;100280.06;;;20.51;78.49
13690;BME280;6917;52.194;9.894;2023-05-22T08:05:12;100274.25;;;20.67;76.75
13690;BME280;6917;52.194;9.894;2023-05-22T08:07:37;100282.66;;;20.77;75.83
13690;BME280;6917;52.194;9.894;2023-05-22T08:10:06;100274.69;;;20.72;74.52
13690;BME280;6917;52.194;9.894;2023-05-22T08:12:32;100273.72;;;20.54;73.73
13690;BME280;6917;52.194;9.894;2023-05-22T08:14:57;100283.34;;;20.64;74.25
13690;BME280;6917;52.194;9.894;2023-05-22T08:17:23;100270.72;;;20.70;73.42
13690;BME280;6917;52.194;9.894;2023-05-22T08:19:48;100284.66;;;20.80;74.13
13690;BME280;6917;52.194;9.894;2023-05-22T08:22:13;100274.41;;;20.88;73.79
13690;BME280;6917;52.194;9.894;2023-05-22T08:24:38;100280.50;;;21.04;74.03
13690;BME280;6917;52.194;9.894;2023-05-22T08:27:04;100270.09;;;20.94;72.76
13690;BME280;6917;52.194;9.894;2023-05-22T08:29:29;100278.78;;;20.86;73.70
13690;BME280;6917;52.194;9.894;2023-05-22T08:31:55;100274.59;;;21.13;73.65
13690;BME280;6917;52.194;9.894;2023-05-22T08:34:22;100274.34;;;21.29;73.44
13690;BME280;6917;52.194;9.894;2023-05-22T08:36:47;100264.50;;;21.42;73.07
13690;BME280;6917;52.194;9.894;2023-05-22T08:39:14;100257.28;;;21.37;72.09
13690;BME280;6917;52.194;9.894;2023-05-22T08:41:39;100252.84;;;21.26;72.05
13690;BME280;6917;52.194;9.894;2023-05-22T08:44:07;100268.31;;;21.23;73.68
13690;BME280;6917;52.194;9.894;2023-05-22T08:46:33;100256.09;;;21.31;73.23
13690;BME280;6917;52.194;9.894;2023-05-22T08:49:03;100260.84;;;21.34;74.29
13690;BME280;6917;52.194;9.894;2023-05-22T08:51:32;100253.31;;;21.35;73.40
13690;BME280;6917;52.194;9.894;2023-05-22T08:53:59;100260.91;;;21.42;74.24
13690;BME280;6917;52.194;9.894;2023-05-22T08:56:29;100260.06;;;21.30;75.20
13690;BME280;6917;52.194;9.894;2023-05-22T08:58:56;100255.31;;;21.34;74.88
13690;BME280;6917;52.194;9.894;2023-05-22T09:01:23;100247.38;;;21.36;74.74
13690;BME280;6917;52.194;9.894;2023-05-22T09:03:49;100261.34;;;21.51;76.47
13690;BME280;6917;52.194;9.894;2023-05-22T09:06:15;100260.19;;;21.62;76.98
13690;BME280;6917;52.194;9.894;2023-05-22T09:08:41;100244.34;;;21.70;74.56
13690;BME280;6917;52.194;9.894;2023-05-22T09:11:07;100256.69;;;21.83;74.48
13690;BME280;6917;52.194;9.894;2023-05-22T09:13:38;100245.31;;;22.20;75.11
13690;BME280;6917;52.194;9.894;2023-05-22T09:16:11;100236.56;;;22.25;71.51
13690;BME280;6917;52.194;9.894;2023-05-22T09:18:38;100250.09;;;22.55;73.46
13690;BME280;6917;52.194;9.894;2023-05-22T09:21:07;100236.56;;;22.68;71.59
13690;BME280;6917;52.194;9.894;2023-05-22T09:23:33;100233.41;;;22.52;70.26
13690;BME280;6917;52.194;9.894;2023-05-22T09:26:00;100237.38;;;22.47;71.62
13690;BME280;6917;52.194;9.894;2023-05-22T09:28:26;100231.00;;;22.65;70.73
13690;BME280;6917;52.194;9.894;2023-05-22T09:30:53;100234.59;;;22.79;70.84
13690;BME280;6917;52.194;9.894;2023-05-22T09:33:20;100225.06;;;22.91;69.43
13690;BME280;6917;52.194;9.894;2023-05-22T09:35:46;100222.22;;;23.12;69.69
13690;BME280;6917;52.194;9.894;2023-05-22T09:38:12;100233.34;;;23.30;70.58
13690;BME280;6917;52.194;9.894;2023-05-22T09:40:39;100235.34;;;23.19;70.05
13690;BME280;6917;52.194;9.894;2023-05-22T09:43:09;100216.69;;;22.55;69.62
13690;BME280;6917;52.194;9.894;2023-05-22T09:45:35;100226.25;;;22.62;70.99
13690;BME280;6917;52.194;9.894;2023-05-22T09:48:04;100233.41;;;22.84;71.69
13690;BME280;6917;52.194;9.894;2023-05-22T09:50:31;100233.00;;;22.68;71.07
13690;BME280;6917;52.194;9.894;2023-05-22T09:53:00;100229.03;;;22.83;71.28
13690;BME280;6917;52.194;9.894;2023-05-22T09:55:26;100242.19;;;22.90;71.45
13690;BME280;6917;52.194;9.894;2023-05-22T09:57:52;100235.75;;;23.10;71.15
13690;BME280;6917;52.194;9.894;2023-05-22T10:00:18;100230.19;;;23.00;69.82
13690;BME280;6917;52.194;9.894;2023-05-22T10:05:11;100220.59;;;23.26;69.77
13690;BME280;6917;52.194;9.894;2023-05-22T10:07:47;100218.59;;;23.30;68.61
13690;BME280;6917;52.194;9.894;2023-05-22T10:10:16;100221.38;;;23.23;68.19
13690;BME280;6917;52.194;9.894;2023-05-22T10:12:45;100218.19;;;23.31;69.27
13690;BME280;6917;52.194;9.894;2023-05-22T10:15:12;100219.38;;;23.27;68.24
13690;BME280;6917;52.194;9.894;2023-05-22T10:17:38;100214.28;;;23.07;68.39
13690;BME280;6917;52.194;9.894;2023-05-22T10:20:04;100215.88;;;23.05;68.37
13690;BME280;6917;52.194;9.894;2023-05-22T10:22:36;100209.47;;;23.15;68.72
13690;BME280;6917;52.194;9.894;2023-05-22T10:25:02;100218.63;;;23.12;67.99
13690;BME280;6917;52.194;9.894;2023-05-22T10:27:28;100212.53;;;23.53;69.24
13690;BME280;6917;52.194;9.894;2023-05-22T10:30:01;100195.00;;;23.52;65.92
13690;BME280;6917;52.194;9.894;2023-05-22T10:32:39;100198.19;;;23.51;66.66
13690;BME280;6917;52.194;9.894;2023-05-22T10:35:20;100221.53;;;23.92;69.04
13690;BME280;6917;52.194;9.894;2023-05-22T10:37:51;100177.88;;;23.50;65.71
13690;BME280;6917;52.194;9.894;2023-05-22T10:40:26;100189.81;;;23.61;66.97
13690;BME280;6917;52.194;9.894;2023-05-22T10:43:01;100195.31;;;23.76;66.18
13690;BME280;6917;52.194;9.894;2023-05-22T10:45:28;100177.34;;;23.80;65.23
13690;BME280;6917;52.194;9.894;2023-05-22T10:48:04;100174.09;;;23.85;64.25
13690;BME280;6917;52.194;9.894;2023-05-22T10:50:30;100175.44;;;24.25;64.38
13690;BME280;6917;52.194;9.894;2023-05-22T10:53:31;100172.50;;;24.47;64.11
13690;BME280;6917;52.194;9.894;2023-05-22T10:55:58;100172.94;;;24.42;63.51
13690;BME280;6917;52.194;9.894;2023-05-22T10:58:30;100162.72;;;24.21;63.29
13690;BME280;6917;52.194;9.894;2023-05-22T11:01:19;100184.09;;;24.42;64.29
13690;BME280;6917;52.194;9.894;2023-05-22T11:03:59;100172.97;;;24.79;63.19
13690;BME280;6917;52.194;9.894;2023-05-22T11:06:38;100162.06;;;24.51;61.84
13690;BME280;6917;52.194;9.894;2023-05-22T11:11:46;100170.13;;;24.45;62.03
13690;BME280;6917;52.194;9.894;2023-05-22T11:14:15;100164.19;;;24.81;62.06
13690;BME280;6917;52.194;9.894;2023-05-22T11:16:41;100170.03;;;24.93;62.58
13690;BME280;6917;52.194;9.894;2023-05-22T11:19:08;100148.69;;;24.73;60.73
13690;BME280;6917;52.194;9.894;2023-05-22T11:21:43;100162.06;;;24.92;61.86
13690;BME280;6917;52.194;9.894;2023-05-22T11:24:09;100152.44;;;25.31;61.61
13690;BME280;6917;52.194;9.894;2023-05-22T11:26:34;100141.03;;;24.80;60.26
13690;BME280;6917;52.194;9.894;2023-05-22T11:29:00;100156.38;;;24.99;62.23
13690;BME280;6917;52.194;9.894;2023-05-22T11:31:26;100137.75;;;24.89;61.16
13690;BME280;6917;52.194;9.894;2023-05-22T11:33:53;100151.09;;;24.71;61.62
13690;BME280;6917;52.194;9.894;2023-05-22T11:36:18;100141.56;;;24.68;60.86
13690;BME280;6917;52.194;9.894;2023-05-22T11:38:44;100150.47;;;24.93;62.08
13690;BME280;6917;52.194;9.894;2023-05-22T11:41:09;100133.97;;;24.69;60.46
13690;BME280;6917;52.194;9.894;2023-05-22T11:43:41;100142.16;;;24.86;60.84
13690;BME280;6917;52.194;9.894;2023-05-22T11:46:06;100136.78;;;25.06;60.94
13690;BME280;6917;52.194;9.894;2023-05-22T11:48:33;100143.25;;;25.34;61.29
13690;BME280;6917;52.194;9.894;2023-05-22T11:51:01;100132.47;;;25.32;60.76
13690;BME280;6917;52.194;9.894;2023-05-22T11:53:26;100121.34;;;25.25;59.38
13690;BME280;6917;52.194;9.894;2023-05-22T11:55:51;100130.88;;;25.62;60.46
13690;BME280;6917;52.194;9.894;2023-05-22T11:58:20;100125.59;;;25.37;59.24
13690;BME280;6917;52.194;9.894;2023-05-22T12:00:46;100119.22;;;25.36;59.51
13690;BME280;6917;52.194;9.894;2023-05-22T12:03:12;100121.09;;;25.46;60.34
13690;BME280;6917;52.194;9.894;2023-05-22T12:05:38;100105.44;;;25.22;58.40
13690;BME280;6917;52.194;9.894;2023-05-22T12:08:03;100116.31;;;25.43;59.59
13690;BME280;6917;52.194;9.894;2023-05-22T12:10:30;100103.97;;;25.41;59.21
13690;BME280;6917;52.194;9.894;2023-05-22T12:12:55;100094.78;;;25.40;58.92
13690;BME280;6917;52.194;9.894;2023-05-22T12:15:20;100109.75;;;25.27;58.88
13690;BME280;6917;52.194;9.894;2023-05-22T12:17:46;100118.88;;;25.61;59.86
13690;BME280;6917;52.194;9.894;2023-05-22T12:20:12;100093.28;;;25.63;59.04
13690;BME280;6917;52.194;9.894;2023-05-22T12:22:42;100091.56;;;25.11;58.66
13690;BME280;6917;52.194;9.894;2023-05-22T12:25:14;100092.91;;;25.30;59.66
13690;BME280;6917;52.194;9.894;2023-05-22T12:27:44;100086.88;;;25.35;58.84
13690;BME280;6917;52.194;9.894;2023-05-22T12:30:12;100095.34;;;25.28;59.24
13690;BME280;6917;52.194;9.894;2023-05-22T12:32:38;100091.97;;;25.40;59.36
13690;BME280;6917;52.194;9.894;2023-05-22T12:35:04;100094.88;;;25.60;59.88
13690;BME280;6917;52.194;9.894;2023-05-22T12:37:31;100092.78;;;25.68;59.55
13690;BME280;6917;52.194;9.894;2023-05-22T12:40:02;100091.81;;;25.82;58.95
13690;BME280;6917;52.194;9.894;2023-05-22T12:42:28;100093.75;;;25.85;59.08
13690;BME280;6917;52.194;9.894;2023-05-22T12:44:55;100092.25;;;26.03;58.88
13690;BME280;6917;52.194;9.894;2023-05-22T12:47:21;100079.69;;;25.88;57.11
13690;BME280;6917;52.194;9.894;2023-05-22T12:49:47;100079.75;;;25.85;57.44
13690;BME280;6917;52.194;9.894;2023-05-22T12:52:12;100089.25;;;26.14;58.02
13690;BME280;6917;52.194;9.894;2023-05-22T12:54:37;100081.53;;;26.22;57.73
13690;BME280;6917;52.194;9.894;2023-05-22T12:57:03;100093.81;;;26.28;58.52
13690;BME280;6917;52.194;9.894;2023-05-22T12:59:28;100091.22;;;26.41;57.43
13690;BME280;6917;52.194;9.894;2023-05-22T13:01:55;100083.91;;;26.00;57.03
13690;BME280;6917;52.194;9.894;2023-05-22T13:04:26;100096.41;;;25.68;58.49
13690;BME280;6917;52.194;9.894;2023-05-22T13:06:51;100077.88;;;25.20;58.25
13690;BME280;6917;52.194;9.894;2023-05-22T13:09:16;100102.31;;;25.43;59.19
13690;BME280;6917;52.194;9.894;2023-05-22T13:11:43;100096.13;;;25.86;58.86
13690;BME280;6917;52.194;9.894;2023-05-22T13:14:08;100094.69;;;26.25;58.03
13690;BME280;6917;52.194;9.894;2023-05-22T13:16:33;100084.94;;;26.09;57.69
13690;BME280;6917;52.194;9.894;2023-05-22T13:18:59;100087.44;;;26.27;58.59